createdAt,value
2018-10-07T00:00:02.108Z,29.90
2018-10-07T00:02:30.679Z,27.60
2018-10-07T00:05:00.044Z,27.07
2018-10-07T00:07:28.675Z,27.02
2018-10-07T00:09:57.222Z,29.63
2018-10-07T00:12:25.991Z,29.80
2018-10-07T00:14:54.570Z,27.32
2018-10-07T00:17:23.375Z,29.60
2018-10-07T00:19:51.917Z,53.75
2018-10-07T00:22:20.288Z,58.08
2018-10-07T00:24:49.775Z,62.95
2018-10-07T00:27:18.242Z,57.75
2018-10-07T00:29:47.038Z,62.73
2018-10-07T00:32:16.445Z,66.15
2018-10-07T00:34:46.639Z,68.55
2018-10-07T00:37:16.199Z,59.18
2018-10-07T00:39:44.771Z,63.70
2018-10-07T00:42:13.244Z,63.52
2018-10-07T00:44:41.703Z,63.00
2018-10-07T00:47:10.159Z,66.55
2018-10-07T00:49:38.604Z,61.53
2018-10-07T00:52:07.094Z,63.42
2018-10-07T00:54:35.563Z,61.15
2018-10-07T00:57:04.066Z,59.35
2018-10-07T00:59:32.570Z,58.60
2018-10-07T01:02:01.052Z,63.05
2018-10-07T01:04:29.498Z,57.40
2018-10-07T01:06:57.994Z,61.90
2018-10-07T01:09:26.492Z,59.90
2018-10-07T01:11:54.958Z,62.70
2018-10-07T01:14:23.445Z,58.23
2018-10-07T01:16:51.879Z,59.38
2018-10-07T01:19:20.297Z,61.33
2018-10-07T01:21:48.847Z,59.33
2018-10-07T01:24:17.392Z,57.48
2018-10-07T01:26:45.862Z,59.08
2018-10-07T01:29:14.320Z,61.75
2018-10-07T01:31:42.784Z,63.13
2018-10-07T01:34:11.249Z,62.43
2018-10-07T01:36:39.668Z,64.62
2018-10-07T01:39:10.168Z,65.15
2018-10-07T01:41:39.154Z,67.30
2018-10-07T01:44:07.610Z,66.00
2018-10-07T01:46:36.035Z,68.78
2018-10-07T01:49:04.538Z,70.03
2018-10-07T01:51:32.903Z,72.47
2018-10-07T01:54:01.336Z,76.30
2018-10-07T01:56:29.759Z,72.00
2018-10-07T01:58:58.764Z,76.57
2018-10-07T02:01:27.194Z,80.17
2018-10-07T02:03:55.697Z,79.03
2018-10-07T02:06:24.088Z,77.15
2018-10-07T02:08:52.565Z,74.75
2018-10-07T02:11:21.572Z,77.15
2018-10-07T02:13:50.072Z,75.55
2018-10-07T02:16:18.461Z,81.30
2018-10-07T02:18:47.227Z,74.53
2018-10-07T02:21:15.715Z,80.65
2018-10-07T02:23:44.103Z,80.40
2018-10-07T02:26:12.567Z,79.27
2018-10-07T02:28:41.074Z,73.17
2018-10-07T02:31:09.502Z,76.90
2018-10-07T02:33:37.974Z,74.90
2018-10-07T02:36:06.569Z,72.17
2018-10-07T02:38:35.031Z,70.60
2018-10-07T02:41:03.543Z,72.60
2018-10-07T02:43:31.923Z,71.70
2018-10-07T02:46:00.442Z,72.35
2018-10-07T02:48:28.889Z,70.60
2018-10-07T02:50:57.403Z,70.30
2018-10-07T02:53:25.897Z,67.60
2018-10-07T02:55:54.335Z,66.25
2018-10-07T02:58:22.830Z,60.95
2018-10-07T03:00:51.325Z,60.58
2018-10-07T03:03:19.779Z,67.55
2018-10-07T03:05:48.259Z,61.85
2018-10-07T03:08:16.695Z,59.50
2018-10-07T03:10:45.081Z,57.78
2018-10-07T03:13:13.506Z,52.67
2018-10-07T03:15:42.590Z,60.35
2018-10-07T03:18:11.002Z,47.50
2018-10-07T03:20:39.439Z,39.63
2018-10-07T03:23:07.876Z,35.78
2018-10-07T03:25:36.364Z,35.23
2018-10-07T03:28:04.852Z,32.38
2018-10-07T03:30:33.210Z,29.23
2018-10-07T03:33:01.638Z,29.72
2018-10-07T03:35:30.084Z,27.20
2018-10-07T03:37:58.491Z,27.40
2018-10-07T03:40:27.015Z,28.07
2018-10-07T03:42:55.459Z,26.10
2018-10-07T03:45:24.647Z,28.60
2018-10-07T03:47:53.637Z,25.27
2018-10-07T03:50:22.091Z,24.75
2018-10-07T03:52:50.602Z,25.62
2018-10-07T03:55:19.640Z,24.18
2018-10-07T03:57:48.131Z,24.60
2018-10-07T04:00:16.665Z,22.15
2018-10-07T04:02:45.210Z,22.37
2018-10-07T04:05:13.690Z,21.87
2018-10-07T04:07:42.166Z,20.92
2018-10-07T04:10:10.635Z,20.08
2018-10-07T04:12:39.151Z,21.57
2018-10-07T04:15:07.811Z,20.20
2018-10-07T04:17:36.354Z,22.30
2018-10-07T04:20:04.867Z,21.60
2018-10-07T04:22:33.329Z,21.15
2018-10-07T04:25:01.759Z,21.57
2018-10-07T04:27:30.282Z,20.55
2018-10-07T04:29:58.799Z,21.35
2018-10-07T04:32:27.202Z,19.95
2018-10-07T04:34:56.435Z,20.32
2018-10-07T04:37:24.855Z,21.17
2018-10-07T04:39:53.325Z,19.55
2018-10-07T04:42:21.704Z,19.55
2018-10-07T04:44:50.188Z,19.62
2018-10-07T04:47:18.619Z,20.25
2018-10-07T04:49:47.165Z,20.88
2018-10-07T04:52:15.680Z,20.75
2018-10-07T04:54:44.102Z,21.20
2018-10-07T04:57:12.495Z,20.27
2018-10-07T04:59:41.595Z,21.27
2018-10-07T05:02:09.991Z,21.70
2018-10-07T05:04:39.144Z,20.35
2018-10-07T05:07:07.637Z,20.48
2018-10-07T05:09:36.593Z,22.20
2018-10-07T05:12:07.255Z,21.20
2018-10-07T05:14:35.706Z,20.00
2018-10-07T05:17:04.240Z,20.88
2018-10-07T05:19:32.703Z,20.12
2018-10-07T05:22:01.204Z,23.10
2018-10-07T05:24:29.675Z,20.72
2018-10-07T05:26:58.159Z,21.07
2018-10-07T05:29:26.562Z,22.75
2018-10-07T05:31:54.986Z,22.58
2018-10-07T05:34:23.460Z,23.55
2018-10-07T05:36:51.863Z,23.02
2018-10-07T05:39:20.362Z,24.35
2018-10-07T05:41:48.756Z,23.85
2018-10-07T05:44:17.350Z,22.70
2018-10-07T05:46:45.862Z,23.18
2018-10-07T05:49:14.367Z,23.62
2018-10-07T05:51:42.823Z,22.45
2018-10-07T05:54:11.210Z,24.98
2018-10-07T05:56:40.387Z,23.80
2018-10-07T05:59:08.897Z,22.93
2018-10-07T06:01:40.093Z,20.25
2018-10-07T06:04:41.366Z,20.75
2018-10-07T06:07:10.096Z,19.52
2018-10-07T06:09:39.194Z,18.55
2018-10-07T06:12:07.715Z,17.62
2018-10-07T06:14:47.287Z,17.75
2018-10-07T06:17:15.734Z,18.25
2018-10-07T06:19:44.246Z,17.23
2018-10-07T06:22:12.739Z,18.17
2018-10-07T06:24:41.158Z,17.37
2018-10-07T06:27:11.402Z,17.75
2018-10-07T06:29:39.911Z,17.85
2018-10-07T06:32:08.346Z,16.48
2018-10-07T06:34:36.884Z,15.72
2018-10-07T06:37:05.379Z,15.60
2018-10-07T06:39:33.927Z,16.15
2018-10-07T06:42:02.599Z,17.05
2018-10-07T06:44:31.104Z,15.88
2018-10-07T06:46:59.627Z,15.23
2018-10-07T06:49:28.225Z,16.05
2018-10-07T06:51:56.782Z,16.40
2018-10-07T06:54:25.317Z,15.70
2018-10-07T06:56:53.781Z,16.07
2018-10-07T06:59:22.239Z,16.87
2018-10-07T07:01:50.792Z,16.42
2018-10-07T07:04:19.372Z,15.53
2018-10-07T07:06:47.908Z,16.70
2018-10-07T07:09:16.495Z,16.20
2018-10-07T07:11:44.975Z,15.55
2018-10-07T07:14:13.478Z,17.85
2018-10-07T07:16:41.928Z,17.00
2018-10-07T07:19:10.415Z,15.35
2018-10-07T07:21:38.880Z,15.93
2018-10-07T07:24:07.403Z,16.52
2018-10-07T07:26:35.908Z,16.45
2018-10-07T07:29:04.431Z,14.68
2018-10-07T07:31:33.071Z,15.20
2018-10-07T07:34:02.067Z,14.87
2018-10-07T07:36:30.553Z,15.05
2018-10-07T07:38:59.063Z,14.73
2018-10-07T07:41:27.800Z,15.23
2018-10-07T07:43:56.259Z,14.63
2018-10-07T07:46:24.795Z,14.83
2018-10-07T07:48:53.262Z,14.75
2018-10-07T07:51:21.768Z,15.38
2018-10-07T07:53:50.982Z,14.20
2018-10-07T07:56:19.665Z,14.38
2018-10-07T07:58:48.120Z,14.75
2018-10-07T08:01:16.628Z,15.25
2018-10-07T08:03:45.358Z,15.48
2018-10-07T08:06:13.887Z,15.18
2018-10-07T08:08:42.374Z,14.40
2018-10-07T08:11:10.887Z,14.55
2018-10-07T08:13:39.388Z,14.50
2018-10-07T08:16:07.927Z,14.85
2018-10-07T08:18:36.408Z,14.63
2018-10-07T08:21:05.073Z,14.58
2018-10-07T08:23:33.839Z,14.85
2018-10-07T08:26:02.264Z,14.13
2018-10-07T08:28:30.739Z,14.13
2018-10-07T08:30:59.237Z,15.78
2018-10-07T08:33:27.776Z,14.83
2018-10-07T08:35:56.315Z,14.47
2018-10-07T08:38:24.846Z,13.93
2018-10-07T08:40:53.462Z,12.98
2018-10-07T08:43:22.042Z,14.58
2018-10-07T08:45:50.553Z,13.28
2018-10-07T08:48:19.151Z,14.45
2018-10-07T08:50:47.604Z,13.75
2018-10-07T08:53:16.122Z,13.90
2018-10-07T08:55:44.867Z,13.98
2018-10-07T08:58:13.397Z,14.10
2018-10-07T09:00:41.912Z,14.60
2018-10-07T09:03:10.600Z,14.50
2018-10-07T09:05:39.138Z,13.95
2018-10-07T09:08:08.115Z,14.10
2018-10-07T09:10:36.662Z,14.90
2018-10-07T09:13:05.348Z,14.65
2018-10-07T09:15:33.952Z,15.05
2018-10-07T09:18:02.472Z,14.35
2018-10-07T09:20:30.980Z,14.47
2018-10-07T09:22:59.630Z,14.25
2018-10-07T09:25:28.171Z,15.08
2018-10-07T09:27:58.475Z,15.00
2018-10-07T09:30:27.138Z,14.13
2018-10-07T09:32:55.989Z,14.85
2018-10-07T09:35:24.399Z,14.90
2018-10-07T09:37:52.955Z,14.75
2018-10-07T09:40:21.545Z,14.73
2018-10-07T09:42:50.091Z,15.08
2018-10-07T09:45:18.738Z,14.85
2018-10-07T09:47:47.380Z,15.30
2018-10-07T09:50:15.975Z,15.60
2018-10-07T09:52:44.498Z,14.80
2018-10-07T09:55:13.110Z,15.05
2018-10-07T09:57:41.517Z,14.87
2018-10-07T10:00:10.208Z,14.75
2018-10-07T10:02:38.738Z,15.45
2018-10-07T10:05:07.299Z,15.50
2018-10-07T10:07:35.883Z,16.85
2018-10-07T10:10:04.491Z,15.93
2018-10-07T10:12:33.166Z,15.25
2018-10-07T10:15:01.723Z,15.65
2018-10-07T10:17:30.463Z,15.80
2018-10-07T10:20:08.737Z,16.30
2018-10-07T10:24:49.534Z,15.70
2018-10-07T10:27:55.047Z,15.25
2018-10-07T10:30:29.759Z,15.10
2018-10-07T10:33:08.633Z,14.87
2018-10-07T10:35:54.337Z,15.10
2018-10-07T10:38:43.871Z,15.38
2018-10-07T10:41:20.152Z,14.63
2018-10-07T10:43:54.377Z,15.72
2018-10-07T10:46:32.405Z,15.10
2018-10-07T10:51:15.758Z,15.50
2018-10-07T10:53:50.813Z,14.05
2018-10-07T10:56:24.832Z,15.55
2018-10-07T11:01:06.287Z,15.65
2018-10-07T11:04:45.126Z,15.50
2018-10-07T11:07:24.833Z,15.20
2018-10-07T11:11:04.041Z,15.32
2018-10-07T11:13:55.378Z,15.68
2018-10-07T11:16:51.901Z,15.55
2018-10-07T11:19:23.250Z,15.65
2018-10-07T11:22:08.200Z,15.75
2018-10-07T11:25:03.252Z,15.28
2018-10-07T11:28:08.808Z,15.35
2018-10-07T11:30:44.884Z,15.50
2018-10-07T11:33:27.864Z,16.48
2018-10-07T11:36:40.453Z,17.25
2018-10-07T11:39:14.577Z,15.98
2018-10-07T11:42:54.671Z,16.93
2018-10-07T11:45:28.005Z,16.20
2018-10-07T11:49:13.052Z,16.23
2018-10-07T11:51:49.800Z,14.95
2018-10-07T11:54:22.978Z,16.10
2018-10-07T11:56:51.589Z,15.85
2018-10-07T11:59:20.159Z,15.75
2018-10-07T12:01:48.688Z,15.70
2018-10-07T12:04:17.288Z,17.92
2018-10-07T12:06:45.822Z,17.07
2018-10-07T12:09:15.302Z,17.50
2018-10-07T12:11:44.237Z,16.77
2018-10-07T12:14:14.149Z,17.70
2018-10-07T12:16:43.855Z,16.60
2018-10-07T12:19:12.507Z,18.40
2018-10-07T12:21:41.104Z,17.92
2018-10-07T12:24:09.807Z,17.92
2018-10-07T12:26:39.219Z,16.80
2018-10-07T12:29:07.984Z,16.57
2018-10-07T12:31:36.609Z,16.77
2018-10-07T12:34:05.206Z,16.15
2018-10-07T12:36:33.817Z,18.27
2018-10-07T12:39:03.297Z,16.23
2018-10-07T12:41:31.976Z,16.50
2018-10-07T12:44:00.552Z,17.90
2018-10-07T12:46:29.060Z,18.75
2018-10-07T12:48:57.704Z,18.20
2018-10-07T12:51:26.565Z,17.50
2018-10-07T12:53:55.149Z,17.32
2018-10-07T12:56:23.745Z,17.52
2018-10-07T12:58:52.437Z,16.40
2018-10-07T13:01:21.010Z,18.92
2018-10-07T13:03:49.545Z,18.12
2018-10-07T13:06:18.111Z,16.97
2018-10-07T13:08:46.651Z,16.97
2018-10-07T13:11:15.365Z,17.80
2018-10-07T13:13:43.874Z,16.52
2018-10-07T13:16:12.517Z,17.15
2018-10-07T13:18:41.092Z,17.90
2018-10-07T13:21:09.667Z,17.55
2018-10-07T13:23:38.298Z,16.45
2018-10-07T13:26:06.892Z,17.37
2018-10-07T13:28:35.547Z,17.37
2018-10-07T13:31:04.094Z,16.17
2018-10-07T13:33:32.866Z,17.05
2018-10-07T13:36:01.326Z,16.97
2018-10-07T13:38:29.955Z,17.50
2018-10-07T13:40:58.550Z,17.42
2018-10-07T13:43:27.093Z,17.37
2018-10-07T13:45:55.716Z,16.75
2018-10-07T13:48:24.429Z,18.10
2018-10-07T13:50:53.102Z,18.07
2018-10-07T13:53:21.767Z,17.30
2018-10-07T13:55:50.220Z,17.40
2018-10-07T13:58:18.745Z,16.90
2018-10-07T14:00:47.419Z,16.50
2018-10-07T14:03:15.967Z,17.52
2018-10-07T14:05:44.563Z,16.82
2018-10-07T14:08:13.126Z,16.62
2018-10-07T14:10:41.594Z,16.15
2018-10-07T14:13:10.087Z,17.40
2018-10-07T14:15:38.708Z,16.27
2018-10-07T14:18:07.403Z,16.57
2018-10-07T14:20:35.933Z,17.35
2018-10-07T14:23:04.470Z,17.20
2018-10-07T14:25:33.016Z,16.35
2018-10-07T14:28:01.585Z,17.10
2018-10-07T14:30:31.244Z,17.27
2018-10-07T14:32:59.902Z,15.95
2018-10-07T14:35:28.673Z,16.93
2018-10-07T14:37:57.258Z,16.55
2018-10-07T14:40:25.851Z,15.93
2018-10-07T14:42:54.470Z,15.15
2018-10-07T14:45:23.083Z,16.45
2018-10-07T14:47:51.687Z,16.35
2018-10-07T14:50:20.237Z,15.58
2018-10-07T14:52:49.674Z,16.57
2018-10-07T14:55:18.312Z,15.18
2018-10-07T14:57:46.925Z,16.82
2018-10-07T15:00:16.274Z,16.73
2018-10-07T15:02:44.832Z,16.07
2018-10-07T15:05:13.616Z,16.60
2018-10-07T15:07:42.298Z,15.35
2018-10-07T15:10:11.107Z,17.05
2018-10-07T15:12:39.737Z,18.15
2018-10-07T15:15:08.505Z,17.65
2018-10-07T15:17:37.102Z,16.85
2018-10-07T15:20:06.221Z,17.20
2018-10-07T15:22:34.787Z,15.83
2018-10-07T15:25:03.489Z,15.65
2018-10-07T15:27:32.225Z,16.82
2018-10-07T15:30:00.909Z,18.23
2018-10-07T15:32:29.539Z,16.77
2018-10-07T15:34:58.229Z,18.12
2018-10-07T15:37:27.044Z,17.15
2018-10-07T15:39:55.713Z,16.67
2018-10-07T15:42:24.310Z,17.05
2018-10-07T15:44:52.950Z,16.12
2018-10-07T15:47:21.557Z,16.05
2018-10-07T15:49:50.213Z,16.73
2018-10-07T15:52:18.913Z,16.23
2018-10-07T15:54:47.637Z,17.02
2018-10-07T15:57:16.202Z,16.17
2018-10-07T15:59:45.032Z,15.10
2018-10-07T16:02:13.717Z,16.80
2018-10-07T16:04:42.996Z,16.73
2018-10-07T16:07:11.853Z,17.23
2018-10-07T16:09:41.366Z,16.60
2018-10-07T16:12:10.719Z,16.87
2018-10-07T16:14:39.750Z,16.52
2018-10-07T16:17:08.409Z,16.97
2018-10-07T16:19:37.184Z,19.52
2018-10-07T16:22:12.624Z,16.00
2018-10-07T16:24:42.249Z,17.95
2018-10-07T16:27:11.347Z,16.07
2018-10-07T16:29:39.920Z,16.27
2018-10-07T16:32:08.821Z,16.12
2018-10-07T16:34:37.260Z,16.65
2018-10-07T16:37:05.944Z,17.07
2018-10-07T16:39:35.132Z,15.88
2018-10-07T16:42:04.545Z,17.52
2018-10-07T16:44:33.194Z,16.23
2018-10-07T16:47:02.249Z,16.55
2018-10-07T16:49:31.077Z,16.20
2018-10-07T16:52:00.504Z,16.37
2018-10-07T16:54:29.456Z,15.23
2018-10-07T16:56:58.861Z,15.80
2018-10-07T16:59:27.553Z,17.25
2018-10-07T17:01:56.916Z,17.25
2018-10-07T17:04:25.672Z,15.80
2018-10-07T17:06:54.239Z,16.37
2018-10-07T17:09:22.976Z,15.95
2018-10-07T17:11:51.963Z,16.48
2018-10-07T17:14:20.838Z,16.35
2018-10-07T17:16:49.605Z,17.73
2018-10-07T17:19:19.441Z,16.37
2018-10-07T17:21:48.373Z,16.65
2018-10-07T17:24:17.638Z,18.50
2018-10-07T17:26:47.495Z,18.92
2018-10-07T17:29:16.453Z,17.30
2018-10-07T17:31:45.328Z,17.23
2018-10-07T17:34:13.899Z,15.48
2018-10-07T17:36:42.986Z,17.30
2018-10-07T17:39:12.519Z,16.07
2018-10-07T17:41:41.651Z,16.40
2018-10-07T17:44:10.610Z,16.15
2018-10-07T17:46:39.375Z,17.40
2018-10-07T17:49:08.149Z,18.52
2018-10-07T17:51:36.835Z,16.97
2018-10-07T17:54:06.524Z,14.68
2018-10-07T17:56:35.359Z,17.10
2018-10-07T17:59:05.116Z,15.35
2018-10-07T18:01:33.858Z,19.48
2018-10-07T18:04:03.063Z,41.83
2018-10-07T18:06:32.464Z,86.32
2018-10-07T18:09:01.541Z,171.10
2018-10-07T18:11:30.645Z,66.55
2018-10-07T18:14:00.036Z,22.10
2018-10-07T18:16:29.303Z,20.90
2018-10-07T18:18:58.548Z,25.85
2018-10-07T18:21:27.529Z,18.25
2018-10-07T18:23:56.426Z,17.92
2018-10-07T18:26:25.836Z,20.77
2018-10-07T18:28:55.113Z,23.52
2018-10-07T18:31:24.482Z,19.50
2018-10-07T18:33:53.883Z,17.10
2018-10-07T18:36:22.804Z,16.35
2018-10-07T18:38:51.900Z,17.32
2018-10-07T18:41:21.053Z,17.95
2018-10-07T18:43:49.722Z,15.70
2018-10-07T18:46:18.553Z,16.23
2018-10-07T18:48:47.581Z,16.90
2018-10-07T18:51:16.723Z,18.10
2018-10-07T18:53:45.388Z,17.00
2018-10-07T18:56:16.188Z,17.65
2018-10-07T18:58:46.001Z,16.55
2018-10-07T19:01:14.763Z,19.55
2018-10-07T19:03:43.637Z,20.88
2018-10-07T19:06:12.440Z,17.00
2018-10-07T19:08:41.201Z,16.55
2018-10-07T19:11:10.114Z,15.88
2018-10-07T19:13:38.786Z,15.53
2018-10-07T19:16:08.106Z,15.45
2018-10-07T19:18:36.951Z,18.55
2018-10-07T19:21:06.073Z,16.20
2018-10-07T19:23:34.730Z,17.40
2018-10-07T19:26:03.584Z,16.35
2018-10-07T19:28:33.517Z,15.65
2018-10-07T19:31:02.440Z,16.20
2018-10-07T19:33:31.103Z,14.58
2018-10-07T19:36:00.131Z,15.10
2018-10-07T19:38:29.466Z,15.40
2018-10-07T19:40:59.045Z,15.50
2018-10-07T19:43:27.747Z,15.83
2018-10-07T19:45:57.146Z,15.15
2018-10-07T19:48:26.049Z,15.15
2018-10-07T19:50:54.582Z,15.25
2018-10-07T19:53:23.489Z,14.63
2018-10-07T19:55:52.230Z,15.20
2018-10-07T19:58:20.891Z,14.73
2018-10-07T20:00:49.777Z,14.65
2018-10-07T20:03:18.439Z,14.80
2018-10-07T20:05:47.243Z,15.15
2018-10-07T20:08:16.389Z,15.78
2018-10-07T20:10:45.417Z,15.28
2018-10-07T20:13:14.499Z,15.78
2018-10-07T20:15:43.664Z,15.53
2018-10-07T20:18:12.874Z,15.18
2018-10-07T20:20:42.823Z,15.70
2018-10-07T20:23:12.540Z,15.10
2018-10-07T20:25:41.618Z,14.95
2018-10-07T20:28:10.714Z,17.35
2018-10-07T20:30:39.674Z,15.08
2018-10-07T20:33:08.613Z,14.95
2018-10-07T20:35:37.588Z,15.08
2018-10-07T20:38:06.967Z,14.98
2018-10-07T20:40:37.649Z,15.20
2018-10-07T20:43:07.244Z,15.10
2018-10-07T20:45:35.928Z,14.83
2018-10-07T20:48:05.097Z,16.90
2018-10-07T20:50:34.309Z,14.50
2018-10-07T20:53:02.815Z,14.87
2018-10-07T20:55:31.619Z,14.93
2018-10-07T20:58:00.775Z,14.73
2018-10-07T21:00:29.245Z,13.98
2018-10-07T21:02:57.775Z,14.60
2018-10-07T21:05:26.610Z,14.45
2018-10-07T21:07:55.180Z,13.65
2018-10-07T21:10:24.633Z,13.85
2018-10-07T21:12:53.240Z,15.50
2018-10-07T21:15:21.805Z,13.93
2018-10-07T21:17:50.336Z,16.25
2018-10-07T21:20:18.875Z,14.35
2018-10-07T21:22:47.419Z,14.73
2018-10-07T21:25:16.011Z,13.85
2018-10-07T21:27:44.585Z,14.20
2018-10-07T21:30:13.813Z,14.60
2018-10-07T21:32:42.407Z,15.15
2018-10-07T21:35:11.482Z,15.25
2018-10-07T21:37:39.958Z,14.28
2018-10-07T21:40:08.410Z,14.45
2018-10-07T21:42:36.955Z,14.38
2018-10-07T21:45:05.838Z,14.18
2018-10-07T21:47:34.340Z,14.10
2018-10-07T21:50:02.916Z,14.60
2018-10-07T21:52:32.230Z,14.28
2018-10-07T21:55:00.735Z,13.75
2018-10-07T21:57:29.726Z,14.70
2018-10-07T21:59:58.702Z,15.38
2018-10-07T22:02:27.623Z,13.88
2018-10-07T22:04:56.167Z,14.95
2018-10-07T22:07:24.769Z,14.40
2018-10-07T22:09:53.272Z,14.43
2018-10-07T22:12:21.928Z,15.43
2018-10-07T22:14:50.435Z,14.90
2018-10-07T22:17:18.967Z,14.18
2018-10-07T22:19:47.453Z,14.73
2018-10-07T22:22:16.008Z,15.38
2018-10-07T22:24:45.174Z,14.05
2018-10-07T22:27:14.389Z,15.00
2018-10-07T22:29:42.961Z,14.20
2018-10-07T22:32:11.982Z,15.03
2018-10-07T22:34:40.592Z,14.60
2018-10-07T22:37:10.232Z,14.35
2018-10-07T22:39:38.752Z,14.70
2018-10-07T22:42:07.254Z,13.75
2018-10-07T22:44:35.809Z,14.30
2018-10-07T22:47:04.432Z,15.40
2018-10-07T22:49:32.940Z,13.65
2018-10-07T22:52:01.650Z,14.03
2018-10-07T22:54:30.454Z,14.68
2018-10-07T22:56:59.110Z,14.00
2018-10-07T22:59:27.760Z,14.30
2018-10-07T23:01:56.182Z,14.00
2018-10-07T23:04:24.713Z,14.23
2018-10-07T23:06:53.389Z,13.70
2018-10-07T23:09:21.973Z,13.90
2018-10-07T23:11:50.598Z,14.68
2018-10-07T23:14:19.204Z,14.23
2018-10-07T23:16:47.738Z,15.53
2018-10-07T23:19:16.581Z,14.23
2018-10-07T23:21:44.993Z,14.78
2018-10-07T23:24:13.579Z,14.68
2018-10-07T23:26:42.142Z,15.45
2018-10-07T23:29:10.748Z,14.38
2018-10-07T23:31:39.422Z,14.28
2018-10-07T23:34:08.531Z,14.15
2018-10-07T23:36:37.823Z,14.70
2018-10-07T23:39:09.266Z,14.60
2018-10-07T23:41:38.720Z,14.40
2018-10-07T23:44:08.002Z,13.70
2018-10-07T23:46:36.545Z,15.28
2018-10-07T23:49:05.039Z,13.83
2018-10-07T23:51:33.989Z,13.78
2018-10-07T23:54:02.371Z,14.03
2018-10-07T23:56:30.936Z,13.90
2018-10-07T23:58:59.894Z,14.90
